createdAt,value
2023-02-16T00:00:31.500Z,30.00
2023-02-16T00:01:16.268Z,30.00
2023-02-16T00:01:48.503Z,30.00
2023-02-16T00:02:20.355Z,30.00
2023-02-16T00:02:52.187Z,30.00
2023-02-16T00:03:24.057Z,30.00
2023-02-16T00:03:57.153Z,30.00
2023-02-16T00:04:31.250Z,30.00
2023-02-16T00:05:03.193Z,30.00
2023-02-16T00:05:35.394Z,30.00
2023-02-16T00:06:07.637Z,30.00
2023-02-16T00:06:39.369Z,30.00
2023-02-16T00:07:11.084Z,30.00
2023-02-16T00:07:42.989Z,30.00
2023-02-16T00:08:14.952Z,29.67
2023-02-16T00:08:49.276Z,29.00
2023-02-16T00:09:23.194Z,29.00
2023-02-16T00:09:54.924Z,29.00
2023-02-16T00:10:31.484Z,29.00
2023-02-16T00:11:21.519Z,29.00
2023-02-16T00:12:12.046Z,29.00
2023-02-16T00:13:02.668Z,29.00
2023-02-16T00:13:52.906Z,29.00
2023-02-16T00:14:26.451Z,29.00
2023-02-16T00:14:58.701Z,30.00
2023-02-16T00:15:30.649Z,30.00
2023-02-16T00:16:02.589Z,30.00
2023-02-16T00:16:35.199Z,30.00
2023-02-16T00:17:11.138Z,30.00
2023-02-16T00:17:43.004Z,30.00
2023-02-16T00:18:20.326Z,30.00
2023-02-16T00:18:52.886Z,30.00
2023-02-16T00:19:36.993Z,30.00
2023-02-16T00:20:15.556Z,30.00
2023-02-16T00:20:49.034Z,30.00
2023-02-16T00:21:21.938Z,30.00
2023-02-16T00:21:59.273Z,30.00
2023-02-16T00:22:31.025Z,30.00
2023-02-16T00:23:02.843Z,30.00
2023-02-16T00:23:34.645Z,30.00
2023-02-16T00:24:06.778Z,30.00
2023-02-16T00:24:38.680Z,30.00
2023-02-16T00:25:10.973Z,30.00
2023-02-16T00:25:43.464Z,30.00
2023-02-16T00:26:24.236Z,30.00
2023-02-16T00:26:57.409Z,30.00
2023-02-16T00:27:32.526Z,30.00
2023-02-16T00:28:12.620Z,31.00
2023-02-16T00:28:45.612Z,31.00
2023-02-16T00:29:24.795Z,31.00
2023-02-16T00:29:56.686Z,31.00
2023-02-16T00:30:28.480Z,31.00
2023-02-16T00:31:00.351Z,31.00
2023-02-16T00:31:32.284Z,31.00
2023-02-16T00:32:06.304Z,31.00
2023-02-16T00:32:38.219Z,31.00
2023-02-16T00:33:17.788Z,31.00
2023-02-16T00:33:50.140Z,31.00
2023-02-16T00:34:27.915Z,31.00
2023-02-16T00:35:00.259Z,31.00
2023-02-16T00:35:32.065Z,31.00
2023-02-16T00:36:04.056Z,31.00
2023-02-16T00:36:35.821Z,31.00
2023-02-16T00:37:11.447Z,31.00
2023-02-16T00:37:43.421Z,31.00
2023-02-16T00:38:15.216Z,31.00
2023-02-16T00:38:47.225Z,31.00
2023-02-16T00:39:19.204Z,31.00
2023-02-16T00:39:50.995Z,31.00
2023-02-16T00:40:22.865Z,31.00
2023-02-16T00:40:54.636Z,31.00
2023-02-16T00:41:45.081Z,31.00
2023-02-16T00:42:27.097Z,31.00
2023-02-16T00:42:58.931Z,31.00
2023-02-16T00:43:31.272Z,31.00
2023-02-16T00:44:03.449Z,31.00
2023-02-16T00:44:41.332Z,31.00
2023-02-16T00:45:20.216Z,31.00
2023-02-16T00:45:52.325Z,31.00
2023-02-16T00:46:24.145Z,31.00
2023-02-16T00:46:56.091Z,31.00
2023-02-16T00:47:32.473Z,31.00
2023-02-16T00:48:04.949Z,31.00
2023-02-16T00:48:36.839Z,31.00
2023-02-16T00:49:19.660Z,31.00
2023-02-16T00:49:54.179Z,31.00
2023-02-16T00:50:31.888Z,31.00
2023-02-16T00:51:13.761Z,31.00
2023-02-16T00:51:52.742Z,31.00
2023-02-16T00:52:34.446Z,30.67
2023-02-16T00:53:06.305Z,30.00
2023-02-16T00:53:38.070Z,30.00
2023-02-16T00:54:10.007Z,30.33
2023-02-16T00:54:41.794Z,31.00
2023-02-16T00:55:19.377Z,31.33
2023-02-16T00:55:51.338Z,32.67
2023-02-16T00:56:23.365Z,33.33
2023-02-16T00:56:55.248Z,34.00
2023-02-16T00:57:29.751Z,34.00
2023-02-16T00:58:08.868Z,34.00
2023-02-16T00:58:40.973Z,34.00
2023-02-16T00:59:20.925Z,33.33
2023-02-16T01:00:06.439Z,33.00
2023-02-16T01:00:43.061Z,33.00
2023-02-16T01:01:18.420Z,33.00
2023-02-16T01:01:50.542Z,33.00
2023-02-16T01:02:22.413Z,33.00
2023-02-16T01:03:00.991Z,33.00
2023-02-16T01:03:32.954Z,32.33
2023-02-16T01:04:08.065Z,32.00
2023-02-16T01:04:39.995Z,32.00
2023-02-16T01:05:12.886Z,32.00
2023-02-16T01:05:44.976Z,32.00
2023-02-16T01:06:35.368Z,32.00
2023-02-16T01:07:39.636Z,32.00
2023-02-16T01:08:33.059Z,32.00
2023-02-16T01:09:32.712Z,32.00
2023-02-16T01:10:23.836Z,32.00
2023-02-16T01:10:59.121Z,32.00
2023-02-16T01:11:31.016Z,32.00
2023-02-16T01:12:13.473Z,32.00
2023-02-16T01:12:45.355Z,32.00
2023-02-16T01:13:18.194Z,32.00
2023-02-16T01:13:51.925Z,32.00
2023-02-16T01:14:23.909Z,32.00
2023-02-16T01:14:56.346Z,32.00
2023-02-16T01:15:28.141Z,32.00
2023-02-16T01:16:00.453Z,32.00
2023-02-16T01:16:43.144Z,32.00
2023-02-16T01:17:14.998Z,32.33
2023-02-16T01:17:46.800Z,33.00
2023-02-16T01:18:19.713Z,33.00
2023-02-16T01:18:52.962Z,33.00
2023-02-16T01:19:24.976Z,33.00
2023-02-16T01:19:57.006Z,33.00
2023-02-16T01:20:29.019Z,33.00
2023-02-16T01:21:00.903Z,33.00
2023-02-16T01:21:32.853Z,33.00
2023-02-16T01:22:05.800Z,33.00
2023-02-16T01:22:37.593Z,33.00
2023-02-16T01:23:09.932Z,33.00
2023-02-16T01:23:41.727Z,33.00
2023-02-16T01:24:13.603Z,33.00
2023-02-16T01:24:45.488Z,33.00
2023-02-16T01:25:17.815Z,33.00
2023-02-16T01:25:49.653Z,33.00
2023-02-16T01:26:22.084Z,33.33
2023-02-16T01:26:54.072Z,34.00
2023-02-16T01:27:25.842Z,35.33
2023-02-16T01:27:57.755Z,37.00
2023-02-16T01:28:29.926Z,37.00
2023-02-16T01:29:01.867Z,36.00
2023-02-16T01:29:33.685Z,36.00
2023-02-16T01:30:12.815Z,36.00
2023-02-16T01:30:45.066Z,36.00
2023-02-16T01:31:17.713Z,36.00
2023-02-16T01:31:49.788Z,36.00
2023-02-16T01:32:21.780Z,35.00
2023-02-16T01:32:54.119Z,35.00
2023-02-16T01:33:25.949Z,35.00
2023-02-16T01:33:57.757Z,34.67
2023-02-16T01:34:29.501Z,34.00
2023-02-16T01:35:01.258Z,34.00
2023-02-16T01:35:34.407Z,34.00
2023-02-16T01:36:15.307Z,34.00
2023-02-16T01:36:48.704Z,34.00
2023-02-16T01:37:20.511Z,33.00
2023-02-16T01:37:52.427Z,33.00
2023-02-16T01:38:29.162Z,33.00
2023-02-16T01:39:01.770Z,33.00
2023-02-16T01:39:33.562Z,33.00
2023-02-16T01:40:05.856Z,33.00
2023-02-16T01:40:44.637Z,33.00
2023-02-16T01:41:44.419Z,33.00
2023-02-16T01:42:39.211Z,33.00
2023-02-16T01:43:22.608Z,33.00
2023-02-16T01:44:02.789Z,33.00
2023-02-16T01:44:49.827Z,33.00
2023-02-16T01:45:32.897Z,33.00
2023-02-16T01:46:26.776Z,33.00
2023-02-16T01:47:34.892Z,33.00
2023-02-16T01:48:21.093Z,33.00
2023-02-16T01:48:52.872Z,33.00
2023-02-16T01:49:24.979Z,33.00
2023-02-16T01:49:57.511Z,33.00
2023-02-16T01:50:46.090Z,33.00
2023-02-16T01:51:47.991Z,34.00
2023-02-16T01:52:42.022Z,34.67
2023-02-16T01:53:23.177Z,35.00
2023-02-16T01:54:13.503Z,35.00
2023-02-16T01:54:59.181Z,35.00
2023-02-16T01:55:39.424Z,35.00
2023-02-16T01:56:24.120Z,35.00
2023-02-16T01:57:04.723Z,35.00
2023-02-16T01:57:39.376Z,35.00
2023-02-16T01:58:28.657Z,35.00
2023-02-16T01:59:08.823Z,35.00
2023-02-16T02:00:12.510Z,35.00
2023-02-16T02:00:50.022Z,35.00
2023-02-16T02:01:43.066Z,35.00
2023-02-16T02:02:17.795Z,36.00
2023-02-16T02:03:19.772Z,36.00
2023-02-16T02:04:09.885Z,36.00
2023-02-16T02:05:11.999Z,36.00
2023-02-16T02:05:43.858Z,36.00
2023-02-16T02:06:23.837Z,36.00
2023-02-16T02:06:55.670Z,36.00
2023-02-16T02:07:37.115Z,36.00
2023-02-16T02:08:33.804Z,36.00
2023-02-16T02:09:26.292Z,36.00
2023-02-16T02:10:09.512Z,36.00
2023-02-16T02:11:01.410Z,36.00
2023-02-16T02:11:43.369Z,36.00
2023-02-16T02:12:24.156Z,36.00
2023-02-16T02:13:04.069Z,36.00
2023-02-16T02:13:52.072Z,36.00
2023-02-16T02:14:30.984Z,36.00
2023-02-16T02:15:21.240Z,36.00
2023-02-16T02:15:53.243Z,37.00
2023-02-16T02:16:27.815Z,37.00
2023-02-16T02:17:03.884Z,37.00
2023-02-16T02:17:37.410Z,37.00
2023-02-16T02:18:09.149Z,37.00
2023-02-16T02:18:40.922Z,37.00
2023-02-16T02:19:12.757Z,37.00
2023-02-16T02:19:47.379Z,37.00
2023-02-16T02:21:20.672Z,37.00
2023-02-16T02:22:37.010Z,39.67
2023-02-16T02:23:33.245Z,45.00
2023-02-16T02:24:42.114Z,44.00
2023-02-16T02:25:31.508Z,44.00
2023-02-16T02:26:34.053Z,43.00
2023-02-16T02:27:27.705Z,42.33
2023-02-16T02:28:14.525Z,41.67
2023-02-16T02:29:09.485Z,41.00
2023-02-16T02:29:41.510Z,41.00
2023-02-16T02:30:40.821Z,41.00
2023-02-16T02:31:21.250Z,40.00
2023-02-16T02:32:13.414Z,40.00
2023-02-16T02:33:13.310Z,40.00
2023-02-16T02:34:09.457Z,40.00
2023-02-16T02:35:04.509Z,40.00
2023-02-16T02:35:57.121Z,40.00
2023-02-16T02:36:42.164Z,40.00
2023-02-16T02:37:44.104Z,40.00
2023-02-16T02:38:47.899Z,40.00
2023-02-16T02:40:02.619Z,40.00
2023-02-16T02:40:42.300Z,39.67
2023-02-16T02:41:55.345Z,39.00
2023-02-16T02:42:55.567Z,39.00
2023-02-16T02:43:39.133Z,39.00
2023-02-16T02:44:15.492Z,39.00
2023-02-16T02:44:53.407Z,39.00
2023-02-16T02:45:41.042Z,39.00
2023-02-16T02:46:31.739Z,39.33
2023-02-16T02:47:03.832Z,40.00
2023-02-16T02:47:44.285Z,40.00
2023-02-16T02:48:16.123Z,40.00
2023-02-16T02:48:47.895Z,40.00
2023-02-16T02:49:19.815Z,40.00
2023-02-16T02:49:53.424Z,40.00
2023-02-16T02:51:13.396Z,40.00
2023-02-16T02:51:45.177Z,40.33
2023-02-16T02:52:17.220Z,41.00
2023-02-16T02:52:49.043Z,41.00
2023-02-16T02:53:21.068Z,41.00
2023-02-16T02:54:26.097Z,41.00
2023-02-16T02:55:16.632Z,41.00
2023-02-16T02:56:13.730Z,41.00
2023-02-16T02:57:13.260Z,41.00
2023-02-16T02:58:08.757Z,41.00
2023-02-16T02:59:00.340Z,42.00
2023-02-16T02:59:55.040Z,42.00
2023-02-16T03:00:41.677Z,42.00
2023-02-16T03:01:18.955Z,42.00
2023-02-16T03:01:56.812Z,42.00
2023-02-16T03:02:30.745Z,42.00
2023-02-16T03:03:21.994Z,42.00
2023-02-16T03:03:58.264Z,42.00
2023-02-16T03:04:32.786Z,42.00
2023-02-16T03:05:09.533Z,42.00
2023-02-16T03:05:51.281Z,42.00
2023-02-16T03:06:32.828Z,42.00
2023-02-16T03:07:07.389Z,42.00
2023-02-16T03:07:48.604Z,42.00
2023-02-16T03:08:25.582Z,42.00
2023-02-16T03:09:11.610Z,42.00
2023-02-16T03:09:44.711Z,42.00
2023-02-16T03:10:45.933Z,42.00
2023-02-16T03:11:43.945Z,42.00
2023-02-16T03:12:34.982Z,44.33
2023-02-16T03:13:16.773Z,48.00
2023-02-16T03:13:58.849Z,50.00
2023-02-16T03:14:38.101Z,50.67
2023-02-16T03:15:11.201Z,50.00
2023-02-16T03:15:46.862Z,50.00
2023-02-16T03:16:31.289Z,49.33
2023-02-16T03:17:28.687Z,49.00
2023-02-16T03:18:22.664Z,48.00
2023-02-16T03:19:15.723Z,47.00
2023-02-16T03:20:09.687Z,46.67
2023-02-16T03:21:02.490Z,46.00
2023-02-16T03:21:54.376Z,46.00
2023-02-16T03:22:45.474Z,45.00
2023-02-16T03:23:36.002Z,45.00
2023-02-16T03:24:30.615Z,45.00
2023-02-16T03:25:21.234Z,45.00
2023-02-16T03:26:11.668Z,45.00
2023-02-16T03:27:02.540Z,45.00
2023-02-16T03:28:01.077Z,45.00
2023-02-16T03:28:56.665Z,45.00
2023-02-16T03:29:29.371Z,44.00
2023-02-16T03:30:02.856Z,44.00
2023-02-16T03:30:35.481Z,44.00
2023-02-16T03:31:11.951Z,44.00
2023-02-16T03:31:46.636Z,44.67
2023-02-16T03:32:19.077Z,45.00
2023-02-16T03:33:31.087Z,45.00
2023-02-16T03:34:03.266Z,45.00
2023-02-16T03:34:37.528Z,45.00
2023-02-16T03:35:12.849Z,45.00
2023-02-16T03:35:46.432Z,46.00
2023-02-16T03:36:18.419Z,48.67
2023-02-16T03:36:58.523Z,49.67
2023-02-16T03:37:30.647Z,50.00
2023-02-16T03:38:03.019Z,49.67
2023-02-16T03:38:35.369Z,49.00
2023-02-16T03:39:58.085Z,49.00
2023-02-16T03:40:35.021Z,48.00
2023-02-16T03:41:06.933Z,48.00
2023-02-16T03:41:44.258Z,48.00
2023-02-16T03:42:16.067Z,47.33
2023-02-16T03:42:51.576Z,47.00
2023-02-16T03:43:28.053Z,47.00
2023-02-16T03:44:00.396Z,47.00
2023-02-16T03:44:32.139Z,47.00
2023-02-16T03:45:04.457Z,47.00
2023-02-16T03:45:41.367Z,47.00
2023-02-16T03:46:13.419Z,47.00
2023-02-16T03:46:46.088Z,47.00
2023-02-16T03:47:18.289Z,47.00
2023-02-16T03:47:50.135Z,46.33
2023-02-16T03:48:22.187Z,46.00
2023-02-16T03:48:54.026Z,46.00
2023-02-16T03:49:25.840Z,46.00
2023-02-16T03:49:57.663Z,45.67
2023-02-16T03:50:30.054Z,45.00
2023-02-16T03:51:02.173Z,46.00
2023-02-16T03:51:34.747Z,46.00
2023-02-16T03:52:06.570Z,61.00
2023-02-16T03:52:38.380Z,67.00
2023-02-16T03:53:10.248Z,62.33
2023-02-16T03:53:42.042Z,60.33
2023-02-16T03:54:14.255Z,59.33
2023-02-16T03:54:46.109Z,59.00
2023-02-16T03:55:18.064Z,58.00
2023-02-16T03:55:49.971Z,57.67
2023-02-16T03:56:21.857Z,57.00
2023-02-16T03:56:53.659Z,56.67
2023-02-16T03:57:25.443Z,56.00
2023-02-16T03:57:57.188Z,56.00
2023-02-16T03:58:29.132Z,55.33
2023-02-16T03:59:00.974Z,56.00
2023-02-16T03:59:32.779Z,56.67
2023-02-16T04:00:05.289Z,56.00
2023-02-16T04:00:38.262Z,55.67
2023-02-16T04:01:59.620Z,54.00
2023-02-16T04:02:31.479Z,53.67
2023-02-16T04:03:04.440Z,53.00
2023-02-16T04:03:36.326Z,52.33
2023-02-16T04:04:08.287Z,51.33
2023-02-16T04:04:40.138Z,50.67
2023-02-16T04:05:11.899Z,50.00
2023-02-16T04:05:44.420Z,50.00
2023-02-16T04:06:16.666Z,49.33
2023-02-16T04:06:48.427Z,49.00
2023-02-16T04:07:20.391Z,49.00
2023-02-16T04:07:52.231Z,49.00
2023-02-16T04:08:24.014Z,49.00
2023-02-16T04:08:55.886Z,49.00
2023-02-16T04:09:27.708Z,49.00
2023-02-16T04:09:59.439Z,49.00
2023-02-16T04:10:31.436Z,49.00
2023-02-16T04:11:23.264Z,49.00
2023-02-16T04:12:13.445Z,49.00
2023-02-16T04:12:45.326Z,49.00
2023-02-16T04:13:17.264Z,49.00
2023-02-16T04:13:49.101Z,50.67
2023-02-16T04:14:20.989Z,55.67
2023-02-16T04:14:52.819Z,57.00
2023-02-16T04:15:27.769Z,56.67
2023-02-16T04:15:59.546Z,56.00
2023-02-16T04:16:31.346Z,55.33
2023-02-16T04:17:04.045Z,54.67
2023-02-16T04:17:36.256Z,54.00
2023-02-16T04:18:08.064Z,53.33
2023-02-16T04:18:39.868Z,53.00
2023-02-16T04:19:11.709Z,52.33
2023-02-16T04:19:43.480Z,52.00
2023-02-16T04:20:20.123Z,52.00
2023-02-16T04:20:52.507Z,51.33
2023-02-16T04:21:24.349Z,51.00
2023-02-16T04:21:56.271Z,50.67
2023-02-16T04:23:02.144Z,50.00
2023-02-16T04:23:44.282Z,50.00
2023-02-16T04:24:16.078Z,49.00
2023-02-16T04:24:51.010Z,49.00
2023-02-16T04:25:23.217Z,49.00
2023-02-16T04:25:55.039Z,49.00
2023-02-16T04:26:26.888Z,49.00
2023-02-16T04:26:58.717Z,48.67
2023-02-16T04:27:30.643Z,48.00
2023-02-16T04:28:03.030Z,48.00
2023-02-16T04:28:34.854Z,48.00
2023-02-16T04:29:06.683Z,48.00
2023-02-16T04:29:38.416Z,48.00
2023-02-16T04:30:13.662Z,49.00
2023-02-16T04:30:45.515Z,51.67
2023-02-16T04:31:17.474Z,52.00
2023-02-16T04:31:50.071Z,63.67
2023-02-16T04:32:22.049Z,64.33
2023-02-16T04:32:54.491Z,62.33
2023-02-16T04:33:26.269Z,63.67
2023-02-16T04:33:58.144Z,77.67
2023-02-16T04:35:02.767Z,129.00
2023-02-16T04:35:34.606Z,101.67
2023-02-16T04:36:06.817Z,83.00
2023-02-16T04:36:38.637Z,79.00
2023-02-16T04:37:10.570Z,77.33
2023-02-16T04:37:42.602Z,75.67
2023-02-16T04:38:14.389Z,72.00
2023-02-16T04:38:46.189Z,65.00
2023-02-16T04:39:18.077Z,58.00
2023-02-16T04:39:50.203Z,55.00
2023-02-16T04:40:22.318Z,54.33
2023-02-16T04:41:26.839Z,52.33
2023-02-16T04:41:58.684Z,52.00
2023-02-16T04:42:30.451Z,52.00
2023-02-16T04:43:02.302Z,52.00
2023-02-16T04:43:34.493Z,52.00
2023-02-16T04:44:06.461Z,51.33
2023-02-16T04:44:38.405Z,51.00
2023-02-16T04:45:11.669Z,51.00
2023-02-16T04:45:43.683Z,50.33
2023-02-16T04:46:16.146Z,75.67
2023-02-16T04:46:47.873Z,93.33
2023-02-16T04:47:20.516Z,87.67
2023-02-16T04:47:52.342Z,82.67
2023-02-16T04:48:24.107Z,78.33
2023-02-16T04:48:56.217Z,76.33
2023-02-16T04:49:28.112Z,75.33
2023-02-16T04:49:59.945Z,73.67
2023-02-16T04:50:31.940Z,71.00
2023-02-16T04:51:05.699Z,68.00
2023-02-16T04:51:40.229Z,65.00
2023-02-16T04:52:15.138Z,62.00
2023-02-16T04:52:46.970Z,59.00
2023-02-16T04:53:18.829Z,56.67
2023-02-16T04:54:23.544Z,56.00
2023-02-16T04:54:55.393Z,55.67
2023-02-16T04:55:27.460Z,55.00
2023-02-16T04:55:59.273Z,55.00
2023-02-16T04:56:31.104Z,55.00
2023-02-16T04:57:37.235Z,54.00
2023-02-16T04:58:09.078Z,54.00
2023-02-16T04:58:42.161Z,53.00
2023-02-16T04:59:15.448Z,52.67
2023-02-16T04:59:47.422Z,51.67
2023-02-16T05:00:20.194Z,50.67
2023-02-16T05:00:52.494Z,49.67
2023-02-16T05:01:26.447Z,49.00
2023-02-16T05:01:58.792Z,49.00
2023-02-16T05:02:32.829Z,48.00
2023-02-16T05:03:04.658Z,48.00
2023-02-16T05:03:36.427Z,48.00
2023-02-16T05:04:11.848Z,47.33
2023-02-16T05:04:43.708Z,47.00
2023-02-16T05:05:15.682Z,47.67
2023-02-16T05:05:47.669Z,48.00
2023-02-16T05:06:20.712Z,48.00
2023-02-16T05:07:28.598Z,49.00
2023-02-16T05:08:00.350Z,49.67
2023-02-16T05:08:32.138Z,50.00
2023-02-16T05:09:05.022Z,51.00
2023-02-16T05:09:36.864Z,51.00
2023-02-16T05:10:42.665Z,63.33
2023-02-16T05:11:33.765Z,71.67
2023-02-16T05:12:25.237Z,67.67
2023-02-16T05:13:15.475Z,66.00
2023-02-16T05:14:05.974Z,64.00
2023-02-16T05:14:44.680Z,61.00
2023-02-16T05:15:16.728Z,59.33
2023-02-16T05:15:48.639Z,58.33
2023-02-16T05:16:22.228Z,57.67
2023-02-16T05:16:54.204Z,57.00
2023-02-16T05:17:27.156Z,56.67
2023-02-16T05:17:58.948Z,56.00
2023-02-16T05:18:30.797Z,56.00
2023-02-16T05:19:02.648Z,55.00
2023-02-16T05:20:07.508Z,55.00
2023-02-16T05:20:57.763Z,58.33
2023-02-16T05:21:32.596Z,82.33
2023-02-16T05:22:04.481Z,77.00
2023-02-16T05:22:39.152Z,72.33
2023-02-16T05:23:11.092Z,70.67
2023-02-16T05:23:42.887Z,69.67
2023-02-16T05:24:14.709Z,75.33
2023-02-16T05:24:47.423Z,112.33
2023-02-16T05:25:19.298Z,95.67
2023-02-16T05:25:51.128Z,108.00
2023-02-16T05:26:55.722Z,129.00
2023-02-16T05:27:43.202Z,107.67
2023-02-16T05:28:15.063Z,92.00
2023-02-16T05:28:46.845Z,89.00
2023-02-16T05:29:18.649Z,85.00
2023-02-16T05:29:50.924Z,83.00
2023-02-16T05:30:22.987Z,82.67
2023-02-16T05:30:54.910Z,81.67
2023-02-16T05:31:28.154Z,80.00
2023-02-16T05:32:02.644Z,79.00
2023-02-16T05:33:08.995Z,79.00
2023-02-16T05:33:40.928Z,79.00
2023-02-16T05:34:31.000Z,82.67
2023-02-16T05:35:02.762Z,89.33
2023-02-16T05:35:35.140Z,97.67
2023-02-16T05:36:08.091Z,100.67
2023-02-16T05:37:11.712Z,101.00
2023-02-16T05:37:43.556Z,99.33
2023-02-16T05:38:48.574Z,92.67
2023-02-16T05:39:22.395Z,83.33
2023-02-16T05:39:57.501Z,77.00
2023-02-16T05:40:29.413Z,120.00
2023-02-16T05:41:40.980Z,102.67
2023-02-16T05:42:13.517Z,99.33
2023-02-16T05:43:19.332Z,98.33
2023-02-16T05:44:24.266Z,88.67
2023-02-16T05:44:56.032Z,79.00
2023-02-16T05:45:31.528Z,75.00
2023-02-16T05:46:38.325Z,80.67
2023-02-16T05:47:13.489Z,87.00
2023-02-16T05:47:47.130Z,87.00
2023-02-16T05:48:19.214Z,86.00
2023-02-16T05:48:52.256Z,83.33
2023-02-16T05:49:24.280Z,84.00
2023-02-16T05:49:56.135Z,84.00
2023-02-16T05:50:27.942Z,82.67
2023-02-16T05:51:33.586Z,76.00
2023-02-16T05:52:05.613Z,96.67
2023-02-16T05:52:37.507Z,144.67
2023-02-16T05:53:09.564Z,140.33
2023-02-16T05:54:17.576Z,119.33
2023-02-16T05:54:49.406Z,146.00
2023-02-16T05:55:54.140Z,116.33
2023-02-16T05:56:26.579Z,113.33
2023-02-16T05:56:58.415Z,104.67
2023-02-16T05:57:30.279Z,103.00
2023-02-16T05:58:02.269Z,144.33
2023-02-16T05:59:06.899Z,117.00
2023-02-16T05:59:38.792Z,111.00
2023-02-16T06:00:15.439Z,102.00
2023-02-16T06:00:47.315Z,102.00
2023-02-16T06:01:19.232Z,105.00
2023-02-16T06:01:52.173Z,111.33
2023-02-16T06:02:24.357Z,144.00
2023-02-16T06:02:56.210Z,270.00
2023-02-16T06:03:31.034Z,284.67
2023-02-16T06:04:17.150Z,293.00
2023-02-16T06:05:13.660Z,252.67
2023-02-16T06:06:43.762Z,269.33
2023-02-16T06:07:15.571Z,260.33
2023-02-16T06:08:23.855Z,217.67
2023-02-16T06:08:59.459Z,201.33
2023-02-16T06:09:32.010Z,203.67
2023-02-16T06:10:04.416Z,195.33
2023-02-16T06:10:39.039Z,182.33
2023-02-16T06:11:33.581Z,163.00
2023-02-16T06:12:22.112Z,154.67
2023-02-16T06:12:53.983Z,137.33
2023-02-16T06:13:26.664Z,126.00
2023-02-16T06:14:31.351Z,148.67
2023-02-16T06:15:05.209Z,141.00
2023-02-16T06:15:37.122Z,126.00
2023-02-16T06:17:06.740Z,114.33
2023-02-16T06:17:38.577Z,141.33
2023-02-16T06:18:11.533Z,157.00
2023-02-16T06:18:44.917Z,192.00
2023-02-16T06:19:49.866Z,178.00
2023-02-16T06:20:21.710Z,179.67
2023-02-16T06:20:58.089Z,202.67
2023-02-16T06:21:45.146Z,193.33
2023-02-16T06:22:17.016Z,184.67
2023-02-16T06:23:22.977Z,148.00
2023-02-16T06:23:54.854Z,145.33
2023-02-16T06:24:27.985Z,234.33
2023-02-16T06:24:59.780Z,229.67
2023-02-16T06:25:31.625Z,195.67
2023-02-16T06:26:03.481Z,186.67
2023-02-16T06:27:50.158Z,168.00
2023-02-16T06:28:22.108Z,145.33
2023-02-16T06:28:54.913Z,136.00
2023-02-16T06:30:04.463Z,152.33
2023-02-16T06:30:36.682Z,128.67
2023-02-16T06:31:40.918Z,122.00
2023-02-16T06:32:17.254Z,118.00
2023-02-16T06:32:52.598Z,117.67
2023-02-16T06:33:24.432Z,113.67
2023-02-16T06:34:29.116Z,119.67
2023-02-16T06:35:01.098Z,131.67
2023-02-16T06:35:32.946Z,190.67
2023-02-16T06:36:08.035Z,181.33
2023-02-16T06:37:12.780Z,149.00
2023-02-16T06:37:48.408Z,127.33
2023-02-16T06:38:20.245Z,130.00
2023-02-16T06:38:52.426Z,118.67
2023-02-16T06:39:24.350Z,108.67
2023-02-16T06:39:56.095Z,104.00
2023-02-16T06:40:28.044Z,104.00
2023-02-16T06:41:40.990Z,120.33
2023-02-16T06:42:12.791Z,122.67
2023-02-16T06:42:44.931Z,112.33
2023-02-16T06:43:16.656Z,103.00
2023-02-16T06:43:48.438Z,98.33
2023-02-16T06:44:20.424Z,92.67
2023-02-16T06:44:52.201Z,89.33
2023-02-16T06:45:24.065Z,90.00
2023-02-16T06:46:29.211Z,108.00
2023-02-16T06:47:01.068Z,117.00
2023-02-16T06:48:07.468Z,201.00
2023-02-16T06:48:42.477Z,184.67
2023-02-16T06:49:18.333Z,213.33
2023-02-16T06:49:50.475Z,167.00
2023-02-16T06:50:22.532Z,155.33
2023-02-16T06:50:54.550Z,149.00
2023-02-16T06:51:59.260Z,135.33
2023-02-16T06:53:07.727Z,159.67
2023-02-16T06:53:39.497Z,265.00
2023-02-16T06:54:45.553Z,171.33
2023-02-16T06:55:19.255Z,168.67
2023-02-16T06:55:51.658Z,166.67
2023-02-16T06:56:59.106Z,165.33
2023-02-16T06:57:31.430Z,166.33
2023-02-16T06:58:36.099Z,175.33
2023-02-16T06:59:08.012Z,208.67
2023-02-16T06:59:40.223Z,326.33
2023-02-16T07:00:12.653Z,277.00
2023-02-16T07:00:44.558Z,238.00
2023-02-16T07:01:52.494Z,200.33
2023-02-16T07:02:24.302Z,197.00
2023-02-16T07:02:56.516Z,193.67
2023-02-16T07:04:04.191Z,181.00
2023-02-16T07:04:37.757Z,175.33
2023-02-16T07:05:11.014Z,176.00
2023-02-16T07:05:44.294Z,176.00
2023-02-16T07:06:16.352Z,177.33
2023-02-16T07:06:48.182Z,178.00
2023-02-16T07:07:19.979Z,178.00
2023-02-16T07:08:24.650Z,207.00
2023-02-16T07:08:56.570Z,228.67
2023-02-16T07:09:28.554Z,239.33
2023-02-16T07:10:00.502Z,273.67
2023-02-16T07:10:47.436Z,306.67
2023-02-16T07:11:22.069Z,323.33
2023-02-16T07:11:54.569Z,318.00
2023-02-16T07:12:26.469Z,317.67
2023-02-16T07:12:58.318Z,329.33
2023-02-16T07:13:30.138Z,333.33
2023-02-16T07:14:02.315Z,333.33
2023-02-16T07:14:34.208Z,336.00
2023-02-16T07:15:07.147Z,331.67
2023-02-16T07:15:39.448Z,334.00
2023-02-16T07:16:11.991Z,344.00
2023-02-16T07:16:43.822Z,355.67
2023-02-16T07:17:15.697Z,353.33
2023-02-16T07:17:47.477Z,349.33
2023-02-16T07:18:19.287Z,345.00
2023-02-16T07:18:51.637Z,323.00
2023-02-16T07:19:23.418Z,304.67
2023-02-16T07:19:55.272Z,298.67
2023-02-16T07:20:27.912Z,314.33
2023-02-16T07:21:00.193Z,346.67
2023-02-16T07:21:31.983Z,372.33
2023-02-16T07:22:05.500Z,377.00
2023-02-16T07:22:37.336Z,378.00
2023-02-16T07:23:09.185Z,377.00
2023-02-16T07:23:41.180Z,375.67
2023-02-16T07:24:12.978Z,377.67
2023-02-16T07:24:44.806Z,377.00
2023-02-16T07:25:16.773Z,373.67
2023-02-16T07:25:48.682Z,374.33
2023-02-16T07:26:20.530Z,375.33
2023-02-16T07:26:52.394Z,370.33
2023-02-16T07:27:25.361Z,371.33
2023-02-16T07:27:57.112Z,376.67
2023-02-16T07:28:28.985Z,371.00
2023-02-16T07:29:00.803Z,366.33
2023-02-16T07:29:32.608Z,369.00
2023-02-16T07:30:04.631Z,368.00
2023-02-16T07:30:36.878Z,363.33
2023-02-16T07:31:15.819Z,359.67
2023-02-16T07:31:47.988Z,359.00
2023-02-16T07:32:20.337Z,358.00
2023-02-16T07:32:52.304Z,356.67
2023-02-16T07:33:24.128Z,339.00
2023-02-16T07:33:55.957Z,317.67
2023-02-16T07:34:27.733Z,309.33
2023-02-16T07:34:59.728Z,299.67
2023-02-16T07:35:31.546Z,311.67
2023-02-16T07:36:03.932Z,317.67
2023-02-16T07:36:35.825Z,275.67
2023-02-16T07:37:07.647Z,237.00
2023-02-16T07:37:39.904Z,235.00
2023-02-16T07:38:11.768Z,241.67
2023-02-16T07:38:43.712Z,230.67
2023-02-16T07:39:17.012Z,203.00
2023-02-16T07:39:48.812Z,187.67
2023-02-16T07:40:20.736Z,183.67
2023-02-16T07:40:52.619Z,180.00
2023-02-16T07:41:25.282Z,163.67
2023-02-16T07:41:57.120Z,152.33
2023-02-16T07:42:32.954Z,139.67
2023-02-16T07:43:06.536Z,136.00
2023-02-16T07:43:39.512Z,138.00
2023-02-16T07:44:11.381Z,130.67
2023-02-16T07:44:43.219Z,125.33
2023-02-16T07:45:15.135Z,123.00
2023-02-16T07:45:46.981Z,115.00
2023-02-16T07:46:18.830Z,115.33
2023-02-16T07:46:50.663Z,117.33
2023-02-16T07:47:22.633Z,119.67
2023-02-16T07:47:54.545Z,115.00
2023-02-16T07:48:26.536Z,116.67
2023-02-16T07:48:58.286Z,113.00
2023-02-16T07:49:30.050Z,127.33
2023-02-16T07:50:01.881Z,172.00
2023-02-16T07:50:33.751Z,167.33
2023-02-16T07:51:06.064Z,170.67
2023-02-16T07:51:38.154Z,159.33
2023-02-16T07:52:09.990Z,135.33
2023-02-16T07:52:41.772Z,125.33
2023-02-16T07:53:13.723Z,116.33
2023-02-16T07:53:45.500Z,116.00
2023-02-16T07:54:17.328Z,117.33
2023-02-16T07:54:49.231Z,119.33
2023-02-16T07:55:21.097Z,119.00
2023-02-16T07:55:53.034Z,116.67
2023-02-16T07:56:28.733Z,111.33
2023-02-16T07:57:00.565Z,104.33
2023-02-16T07:57:32.368Z,102.33
2023-02-16T07:58:04.808Z,101.33
2023-02-16T07:58:36.939Z,102.00
2023-02-16T07:59:08.771Z,103.33
2023-02-16T07:59:40.962Z,106.00
2023-02-16T08:00:13.185Z,107.67
2023-02-16T08:00:45.004Z,105.33
2023-02-16T08:01:18.999Z,106.33
2023-02-16T08:01:50.925Z,112.67
2023-02-16T08:02:23.748Z,116.33
2023-02-16T08:02:55.787Z,114.00
2023-02-16T08:03:27.699Z,115.67
2023-02-16T08:03:59.674Z,117.33
2023-02-16T08:04:31.630Z,118.00
2023-02-16T08:05:03.469Z,115.67
2023-02-16T08:05:35.381Z,116.33
2023-02-16T08:06:08.796Z,118.00
2023-02-16T08:06:40.699Z,118.00
2023-02-16T08:07:14.153Z,117.67